createdAt,value
2022-11-20T00:01:22.375Z,11.18
2022-11-20T00:03:49.095Z,12.40
2022-11-20T00:06:17.421Z,13.27
2022-11-20T00:08:44.278Z,11.35
2022-11-20T00:11:23.018Z,12.07
2022-11-20T00:13:52.024Z,10.88
2022-11-20T00:16:21.596Z,12.55
2022-11-20T00:18:48.553Z,10.60
2022-11-20T00:21:17.477Z,12.15
2022-11-20T00:23:44.162Z,12.32
2022-11-20T00:26:13.453Z,11.70
2022-11-20T00:28:40.060Z,11.43
2022-11-20T00:31:17.137Z,12.20
2022-11-20T00:33:44.723Z,12.30
2022-11-20T00:36:22.397Z,12.05
2022-11-20T00:38:53.398Z,11.73
2022-11-20T00:41:19.851Z,12.68
2022-11-20T00:43:46.283Z,11.65
2022-11-20T00:46:18.041Z,12.30
2022-11-20T00:48:45.306Z,12.18
2022-11-20T00:51:14.037Z,12.57
2022-11-20T00:53:40.748Z,12.70
2022-11-20T00:56:10.222Z,12.73
2022-11-20T00:58:39.478Z,12.23
2022-11-20T01:01:10.053Z,13.10
2022-11-20T01:03:39.270Z,13.27
2022-11-20T01:06:17.342Z,13.05
2022-11-20T01:08:45.121Z,12.95
2022-11-20T01:11:21.357Z,13.70
2022-11-20T01:13:49.814Z,14.60
2022-11-20T01:16:21.966Z,13.38
2022-11-20T01:18:50.891Z,13.15
2022-11-20T01:21:23.678Z,13.45
2022-11-20T01:23:51.512Z,13.38
2022-11-20T01:26:21.295Z,13.50
2022-11-20T01:28:48.651Z,13.48
2022-11-20T01:31:27.176Z,14.27
2022-11-20T01:33:56.344Z,14.55
2022-11-20T01:36:24.545Z,15.45
2022-11-20T01:38:56.057Z,14.48
2022-11-20T01:44:07.621Z,14.70
2022-11-20T01:46:39.166Z,14.57
